Time;durP1;ratioP1;P1;durP2;ratioP2;P2;SDS_P1;SDS_P2;PMS_P1;PMS_P2;Temp;Humidity;BMP_temperature;BMP_pressure;BME280_temperature;BME280_humidity;BME280_pressure;Samples;Min_cycle;Max_cycle;Signal;HPM_P1;HPM_P2
2023/09/11 00:01:09;;;;;;;11.45;10.35;;;20.20;99.90;;;;;;5034449;28;20212;-57
2023/09/11 00:03:35;;;;;;;10.95;9.57;;;20.20;99.90;;;;;;5032167;28;20582;-60
2023/09/11 00:06:05;;;;;;;10.65;9.65;;;20.20;99.90;;;;;;5017320;28;20268;-60
2023/09/11 00:08:30;;;;;;;13.03;10.17;;;20.20;99.90;;;;;;5037168;28;20203;-59
2023/09/11 00:10:57;;;;;;;12.05;10.50;;;20.10;99.90;;;;;;5037602;28;20289;-59
2023/09/11 00:13:23;;;;;;;12.98;11.80;;;20.10;99.90;;;;;;5040179;28;20194;-58
2023/09/11 00:15:49;;;;;;;11.97;10.17;;;20.20;99.90;;;;;;5037691;28;20207;-57
2023/09/11 00:18:14;;;;;;;12.20;11.00;;;20.20;99.90;;;;;;5013086;28;20516;-59
2023/09/11 00:20:40;;;;;;;12.30;11.10;;;20.20;99.90;;;;;;5042224;28;20760;-61
2023/09/11 00:23:08;;;;;;;11.97;10.73;;;20.20;99.90;;;;;;5037319;28;20253;-57
2023/09/11 00:25:34;;;;;;;14.00;12.63;;;20.10;99.90;;;;;;5021512;28;21116;-58
2023/09/11 00:27:59;;;;;;;12.23;11.02;;;20.10;99.90;;;;;;5038492;28;20225;-58
2023/09/11 00:30:25;;;;;;;11.73;10.60;;;20.10;99.90;;;;;;5037327;28;20202;-57
2023/09/11 00:32:50;;;;;;;11.97;10.77;;;20.10;99.90;;;;;;5038131;28;20716;-56
2023/09/11 00:35:16;;;;;;;12.95;10.85;;;20.10;99.90;;;;;;5039690;28;20278;-60
2023/09/11 00:37:41;;;;;;;13.63;12.23;;;20.10;99.90;;;;;;5041918;28;20488;-58
2023/09/11 00:40:07;;;;;;;14.68;12.07;;;20.00;99.90;;;;;;5032626;28;20199;-59
2023/09/11 00:42:33;;;;;;;11.87;10.67;;;20.00;99.90;;;;;;5039729;28;21207;-59
2023/09/11 00:44:59;;;;;;;12.23;11.03;;;19.90;99.90;;;;;;5038460;28;20221;-59
2023/09/11 00:47:24;;;;;;;14.97;12.07;;;19.90;99.90;;;;;;5039134;28;20795;-58
2023/09/11 00:49:52;;;;;;;13.00;11.77;;;19.80;99.90;;;;;;5033684;28;20202;-59
2023/09/11 00:52:19;;;;;;;12.20;11.07;;;19.70;99.90;;;;;;5036872;28;20223;-59
2023/09/11 00:54:44;;;;;;;11.40;10.37;;;19.60;99.90;;;;;;5037859;28;20211;-59
2023/09/11 00:57:10;;;;;;;15.25;11.30;;;19.50;99.90;;;;;;5034839;28;20284;-59
2023/09/11 00:59:36;;;;;;;12.63;11.33;;;19.60;99.90;;;;;;5040558;28;20681;-61
2023/09/11 01:02:02;;;;;;;12.57;11.47;;;19.60;99.90;;;;;;5043326;28;20198;-59
2023/09/11 01:04:28;;;;;;;12.75;11.48;;;19.50;99.90;;;;;;5029904;28;20227;-58
2023/09/11 01:06:54;;;;;;;12.17;10.90;;;19.60;99.90;;;;;;5039343;28;20710;-59
2023/09/11 01:09:19;;;;;;;15.17;11.77;;;19.70;99.90;;;;;;5039050;28;20299;-59
2023/09/11 01:11:45;;;;;;;16.10;12.40;;;19.70;99.90;;;;;;5032994;28;20204;-61
2023/09/11 01:14:11;;;;;;;12.70;11.40;;;19.80;99.90;;;;;;5049359;28;20337;-59
2023/09/11 01:17:13;;;;;;;15.20;12.60;;;19.80;99.90;;;;;;5037005;28;20294;-60
2023/09/11 01:20:05;;;;;;;12.67;11.37;;;19.60;99.90;;;;;;5006427;28;20202;-58
2023/09/11 01:22:42;;;;;;;13.80;12.27;;;19.50;99.90;;;;;;5036856;28;20286;-65
2023/09/11 01:25:45;;;;;;;13.20;11.77;;;19.40;99.90;;;;;;5040084;28;20230;-58
2023/09/11 01:28:29;;;;;;;14.23;12.83;;;19.30;99.90;;;;;;5034762;28;20252;-57
2023/09/11 01:30:56;;;;;;;13.20;11.90;;;19.30;99.90;;;;;;5034355;28;20201;-60
2023/09/11 01:33:22;;;;;;;14.80;12.13;;;19.20;99.90;;;;;;5042950;28;20844;-60
2023/09/11 01:35:47;;;;;;;14.47;12.03;;;19.20;99.90;;;;;;5035785;28;20721;-60
2023/09/11 01:38:13;;;;;;;13.18;11.77;;;19.20;99.90;;;;;;5018467;28;20289;-57
2023/09/11 01:40:42;;;;;;;15.03;11.57;;;19.20;99.90;;;;;;5032967;28;20742;-57
2023/09/11 01:43:08;;;;;;;13.03;11.83;;;19.20;99.90;;;;;;5032539;28;20259;-58
2023/09/11 01:45:35;;;;;;;16.23;11.80;;;19.20;99.90;;;;;;5028679;28;20772;-57
2023/09/11 01:48:02;;;;;;;13.00;11.67;;;19.10;99.90;;;;;;5021323;28;20242;-57
2023/09/11 01:50:30;;;;;;;12.50;11.30;;;19.10;99.90;;;;;;5017421;28;20218;-57
2023/09/11 01:52:55;;;;;;;13.37;11.57;;;19.10;99.90;;;;;;5035695;28;20240;-57
2023/09/11 01:55:21;;;;;;;13.33;12.03;;;19.10;99.90;;;;;;5017607;28;20202;-58
2023/09/11 01:57:47;;;;;;;12.90;11.57;;;19.00;99.90;;;;;;5043426;28;20198;-57
2023/09/11 02:00:12;;;;;;;14.97;12.23;;;18.90;99.90;;;;;;5035489;28;20286;-58
2023/09/11 02:02:39;;;;;;;13.40;11.93;;;18.90;99.90;;;;;;5041625;28;20629;-58
2023/09/11 02:05:07;;;;;;;13.63;11.60;;;18.80;99.90;;;;;;5039455;28;20233;-59
2023/09/11 02:07:32;;;;;;;11.33;10.33;;;18.80;99.90;;;;;;5034986;28;20252;-57
2023/09/11 02:09:58;;;;;;;13.30;12.00;;;18.80;99.90;;;;;;5031801;28;20211;-58
2023/09/11 02:12:23;;;;;;;12.83;11.57;;;18.90;99.90;;;;;;5035854;28;20206;-58
2023/09/11 02:14:49;;;;;;;13.77;11.93;;;18.90;99.90;;;;;;5018650;28;20214;-58
2023/09/11 02:17:14;;;;;;;13.40;12.00;;;18.80;99.90;;;;;;5031966;28;20213;-58
2023/09/11 02:19:40;;;;;;;12.63;11.40;;;18.70;99.90;;;;;;5035274;28;20194;-57
2023/09/11 02:22:05;;;;;;;13.43;11.50;;;18.60;99.90;;;;;;5035048;28;20198;-60
2023/09/11 02:24:31;;;;;;;13.23;11.87;;;18.50;99.90;;;;;;5035690;28;20622;-58
2023/09/11 02:26:57;;;;;;;13.07;11.63;;;18.40;99.90;;;;;;5034934;28;20206;-59
2023/09/11 02:29:23;;;;;;;12.90;11.60;;;18.40;99.90;;;;;;5036090;28;20224;-60
2023/09/11 02:31:48;;;;;;;12.73;11.53;;;18.40;99.90;;;;;;5040545;28;20790;-58
2023/09/11 02:34:14;;;;;;;13.13;11.93;;;18.40;99.90;;;;;;5032987;28;20218;-59
2023/09/11 02:36:39;;;;;;;14.17;12.77;;;18.40;99.90;;;;;;5035581;28;20660;-59
2023/09/11 02:39:05;;;;;;;13.47;12.03;;;18.40;99.90;;;;;;5027660;28;20238;-59
2023/09/11 02:41:30;;;;;;;13.10;11.87;;;18.40;99.90;;;;;;5017208;28;20202;-59
2023/09/11 02:43:56;;;;;;;13.63;12.23;;;18.40;99.90;;;;;;5032547;28;20201;-59
2023/09/11 02:46:22;;;;;;;13.67;12.37;;;18.40;99.90;;;;;;5031651;28;20266;-59
2023/09/11 02:48:48;;;;;;;14.17;12.77;;;18.40;99.90;;;;;;5035090;28;20227;-58
2023/09/11 02:51:14;;;;;;;12.97;11.67;;;18.30;99.90;;;;;;5038841;28;20205;-58
2023/09/11 02:53:40;;;;;;;13.80;12.33;;;18.30;99.90;;;;;;5036598;28;20194;-59
2023/09/11 02:56:05;;;;;;;13.43;12.10;;;18.40;99.90;;;;;;5031365;28;20616;-60
2023/09/11 02:58:31;;;;;;;13.27;11.97;;;18.30;99.90;;;;;;5040583;28;20202;-60
2023/09/11 03:01:02;;;;;;;15.30;13.80;;;18.30;99.90;;;;;;5019531;28;20208;-63
2023/09/11 03:03:27;;;;;;;14.97;13.00;;;18.40;99.90;;;;;;5035081;28;20244;-58
2023/09/11 03:05:57;;;;;;;14.03;12.23;;;18.30;99.90;;;;;;5035181;28;20683;-60
2023/09/11 03:08:23;;;;;;;13.70;12.30;;;18.30;99.90;;;;;;5037023;28;20210;-60
2023/09/11 03:10:48;;;;;;;14.53;12.27;;;18.30;99.90;;;;;;5043495;28;20068;-57
2023/09/11 03:13:14;;;;;;;14.27;11.57;;;18.40;99.90;;;;;;5038502;28;20205;-61
2023/09/11 03:15:39;;;;;;;13.13;11.73;;;18.40;99.90;;;;;;5041747;28;20402;-62
2023/09/11 03:18:05;;;;;;;16.23;12.73;;;18.40;99.90;;;;;;5042237;28;20236;-62
2023/09/11 03:20:31;;;;;;;13.37;11.67;;;18.40;99.90;;;;;;5036121;28;20260;-61
2023/09/11 03:22:59;;;;;;;14.27;12.83;;;18.40;99.90;;;;;;5029990;28;20513;-62
2023/09/11 03:25:26;;;;;;;15.63;13.03;;;18.50;99.90;;;;;;5039784;28;20210;-59
2023/09/11 03:27:52;;;;;;;13.77;12.47;;;18.50;99.90;;;;;;5044249;28;20193;-58
2023/09/11 03:30:17;;;;;;;14.63;12.50;;;18.40;99.90;;;;;;5035407;28;20206;-57
2023/09/11 03:32:43;;;;;;;13.93;12.63;;;18.40;99.90;;;;;;5037215;28;20190;-57
2023/09/11 03:35:08;;;;;;;13.47;12.17;;;18.40;99.90;;;;;;5038706;28;20199;-59
2023/09/11 03:37:34;;;;;;;14.40;13.00;;;18.40;99.90;;;;;;5043393;28;20208;-58
2023/09/11 03:40:00;;;;;;;16.80;13.50;;;18.30;99.90;;;;;;5034323;28;20199;-57
2023/09/11 03:42:26;;;;;;;14.50;12.73;;;18.30;99.90;;;;;;5037645;28;20677;-60
2023/09/11 03:44:51;;;;;;;14.43;12.30;;;18.20;99.90;;;;;;5040496;28;20355;-59
2023/09/11 03:47:16;;;;;;;14.30;13.00;;;18.20;99.90;;;;;;5033917;28;20224;-62
2023/09/11 03:49:42;;;;;;;14.30;12.80;;;18.30;99.90;;;;;;5020816;28;20242;-57
2023/09/11 03:52:07;;;;;;;14.57;13.23;;;18.40;99.90;;;;;;5045256;28;20221;-58
2023/09/11 03:54:33;;;;;;;17.07;14.07;;;18.40;99.90;;;;;;5040319;28;20448;-58
2023/09/11 03:56:58;;;;;;;14.93;13.47;;;18.40;99.90;;;;;;5033723;28;20217;-58
2023/09/11 03:59:24;;;;;;;14.53;12.70;;;18.40;99.90;;;;;;5036845;28;20217;-60
2023/09/11 04:01:49;;;;;;;15.50;13.13;;;18.40;99.90;;;;;;5038373;28;20209;-57
2023/09/11 04:04:15;;;;;;;17.08;13.70;;;18.30;99.90;;;;;;5037810;28;20332;-57
2023/09/11 04:06:40;;;;;;;15.93;14.27;;;18.20;99.90;;;;;;5042835;28;20197;-57
2023/09/11 04:09:06;;;;;;;15.50;13.67;;;18.20;99.90;;;;;;5033811;28;21052;-58
2023/09/11 04:11:31;;;;;;;14.77;13.37;;;18.20;99.90;;;;;;5038996;28;20216;-57
2023/09/11 04:13:57;;;;;;;14.67;13.10;;;18.10;99.90;;;;;;5040371;28;20205;-57
2023/09/11 04:16:22;;;;;;;16.57;13.47;;;18.00;99.90;;;;;;5038180;28;20206;-57
2023/09/11 04:18:48;;;;;;;15.87;14.27;;;18.00;99.90;;;;;;5039181;28;20226;-57
2023/09/11 04:21:13;;;;;;;17.07;15.13;;;18.00;99.90;;;;;;5040491;28;20304;-58
2023/09/11 04:23:39;;;;;;;15.83;14.37;;;17.90;99.90;;;;;;5033651;28;20702;-60
2023/09/11 04:26:06;;;;;;;14.77;13.33;;;17.90;99.90;;;;;;5037248;28;20890;-57
2023/09/11 04:28:33;;;;;;;17.93;16.03;;;17.90;99.90;;;;;;5037534;28;20320;-58
2023/09/11 04:30:58;;;;;;;15.50;14.00;;;17.90;99.90;;;;;;5037460;28;20663;-58
2023/09/11 04:33:23;;;;;;;18.30;15.93;;;17.80;99.90;;;;;;5037414;28;20533;-55
2023/09/11 04:35:49;;;;;;;17.13;14.93;;;17.90;99.90;;;;;;5034478;28;20202;-59
2023/09/11 04:38:15;;;;;;;15.60;14.10;;;17.90;99.90;;;;;;5038118;28;20981;-62
2023/09/11 04:40:40;;;;;;;15.37;13.90;;;17.90;99.90;;;;;;5037272;28;20666;-57
2023/09/11 04:43:05;;;;;;;16.50;14.67;;;18.00;99.90;;;;;;5036937;28;20202;-61
2023/09/11 04:45:31;;;;;;;14.63;13.17;;;18.00;99.90;;;;;;5033813;28;20579;-61
2023/09/11 04:47:56;;;;;;;17.67;13.47;;;18.00;99.90;;;;;;5035533;28;20276;-61
2023/09/11 04:50:22;;;;;;;16.90;15.13;;;18.00;99.90;;;;;;5034958;28;20643;-59
2023/09/11 04:52:47;;;;;;;16.37;14.33;;;17.90;99.90;;;;;;5016064;28;20198;-60
2023/09/11 04:55:13;;;;;;;19.03;15.77;;;17.80;99.90;;;;;;5029891;28;20615;-58
2023/09/11 04:57:40;;;;;;;20.43;15.30;;;17.80;99.90;;;;;;5034868;28;20190;-59
2023/09/11 05:00:10;;;;;;;18.17;16.30;;;17.80;99.90;;;;;;5018961;28;20231;-59
2023/09/11 05:02:36;;;;;;;18.70;14.87;;;17.80;99.90;;;;;;5039946;28;20206;-58
2023/09/11 05:05:05;;;;;;;20.70;16.20;;;17.80;99.90;;;;;;5032918;28;20224;-59
2023/09/11 05:07:30;;;;;;;16.40;14.70;;;17.90;99.90;;;;;;5035168;28;20718;-58
2023/09/11 05:09:56;;;;;;;19.37;15.30;;;18.00;99.90;;;;;;5034227;28;20207;-59
2023/09/11 05:12:21;;;;;;;19.17;16.63;;;17.90;99.90;;;;;;5015118;28;20213;-58
2023/09/11 05:14:47;;;;;;;19.43;15.57;;;18.00;99.90;;;;;;5036628;28;20206;-58
2023/09/11 05:17:13;;;;;;;16.37;14.57;;;18.00;99.90;;;;;;5035989;28;20232;-60
2023/09/11 05:19:38;;;;;;;17.37;14.87;;;18.00;99.90;;;;;;5039742;28;20213;-60
2023/09/11 05:22:04;;;;;;;18.30;16.40;;;18.00;99.90;;;;;;5033260;28;20690;-60
2023/09/11 05:24:31;;;;;;;18.63;15.27;;;18.00;99.90;;;;;;5040504;28;21000;-60
2023/09/11 05:26:57;;;;;;;19.70;15.20;;;18.10;99.90;;;;;;5038670;28;20757;-60
2023/09/11 05:29:22;;;;;;;15.80;13.97;;;18.10;99.90;;;;;;5039931;28;20193;-61
2023/09/11 05:31:48;;;;;;;16.73;13.67;;;18.00;99.90;;;;;;5035724;28;20695;-59
2023/09/11 05:34:13;;;;;;;18.20;13.60;;;18.00;99.90;;;;;;5038308;28;20208;-59
2023/09/11 05:36:39;;;;;;;15.63;14.03;;;18.00;99.90;;;;;;5033418;28;20213;-59
2023/09/11 05:39:05;;;;;;;17.10;14.87;;;18.10;99.90;;;;;;5035087;28;20282;-60
2023/09/11 05:41:30;;;;;;;16.40;14.73;;;18.10;99.90;;;;;;5035534;28;20197;-61
2023/09/11 05:43:56;;;;;;;17.60;15.73;;;18.20;99.90;;;;;;5037238;28;20209;-58
2023/09/11 05:46:21;;;;;;;15.50;12.80;;;18.30;99.90;;;;;;5035258;28;20314;-58
2023/09/11 05:48:47;;;;;;;20.93;14.57;;;18.30;99.90;;;;;;5026442;28;20215;-58
2023/09/11 05:51:13;;;;;;;15.90;14.37;;;18.40;99.90;;;;;;5035612;28;20210;-58
2023/09/11 05:53:39;;;;;;;19.87;15.90;;;18.50;99.90;;;;;;5036237;28;20192;-58
2023/09/11 05:56:04;;;;;;;16.73;15.07;;;18.60;99.90;;;;;;5035679;28;20205;-59
2023/09/11 05:58:30;;;;;;;18.23;13.97;;;18.70;99.90;;;;;;5039503;28;20256;-58
2023/09/11 06:00:55;;;;;;;18.37;16.10;;;18.70;99.90;;;;;;5031800;28;20939;-59
2023/09/11 06:03:21;;;;;;;17.60;15.77;;;18.80;99.90;;;;;;5039486;28;20632;-59
2023/09/11 06:05:46;;;;;;;17.50;15.53;;;18.80;99.90;;;;;;5033139;28;20292;-59
2023/09/11 06:08:12;;;;;;;17.03;15.33;;;18.90;99.90;;;;;;5035456;28;20703;-59
2023/09/11 06:10:37;;;;;;;18.20;15.67;;;18.90;99.90;;;;;;5032565;28;20753;-59
2023/09/11 06:13:03;;;;;;;18.53;16.10;;;18.90;99.90;;;;;;5034705;28;20209;-59
2023/09/11 06:15:32;;;;;;;17.40;15.63;;;18.90;99.90;;;;;;5034316;28;20202;-58
2023/09/11 06:17:57;;;;;;;15.63;14.03;;;18.90;99.90;;;;;;5030192;28;20327;-59
2023/09/11 06:20:23;;;;;;;21.23;15.03;;;19.00;99.90;;;;;;5034134;28;20912;-60
2023/09/11 06:22:48;;;;;;;18.17;14.87;;;19.10;99.90;;;;;;5032787;28;20249;-59
2023/09/11 06:25:15;;;;;;;18.63;16.33;;;19.10;99.90;;;;;;5033921;28;20232;-59
2023/09/11 06:27:40;;;;;;;23.97;18.23;;;19.20;99.90;;;;;;5040891;28;20194;-59
2023/09/11 06:30:06;;;;;;;18.73;16.87;;;19.30;99.90;;;;;;5035474;28;20562;-59
2023/09/11 06:32:33;;;;;;;17.30;15.50;;;19.50;99.90;;;;;;5039503;28;20195;-59
2023/09/11 06:34:59;;;;;;;20.23;15.45;;;19.60;99.90;;;;;;5039288;28;20393;-61
2023/09/11 06:37:24;;;;;;;16.30;14.80;;;19.80;99.90;;;;;;5036210;28;20252;-57
2023/09/11 06:39:50;;;;;;;16.07;14.43;;;20.00;99.90;;;;;;5037665;28;20249;-57
2023/09/11 06:42:20;;;;;;;16.07;14.47;;;20.10;99.90;;;;;;5034689;28;20198;-57
2023/09/11 06:44:46;;;;;;;14.30;12.87;;;20.20;99.90;;;;;;5032025;28;20413;-59
2023/09/11 06:47:12;;;;;;;14.30;13.00;;;20.30;99.90;;;;;;5032634;28;20243;-59
2023/09/11 06:49:37;;;;;;;14.80;13.30;;;20.50;99.90;;;;;;5037645;28;20712;-58
2023/09/11 06:52:03;;;;;;;14.53;12.87;;;20.60;99.90;;;;;;5033378;28;21102;-60
2023/09/11 06:54:29;;;;;;;12.17;11.07;;;20.70;99.90;;;;;;5035595;28;20680;-60
2023/09/11 06:56:54;;;;;;;14.17;12.80;;;20.80;99.90;;;;;;5034968;28;20203;-60
2023/09/11 06:59:20;;;;;;;12.57;11.37;;;20.80;99.90;;;;;;5016556;28;20231;-60
2023/09/11 07:01:45;;;;;;;12.30;9.90;;;20.90;99.90;;;;;;5036039;28;20207;-57
2023/09/11 07:04:11;;;;;;;12.93;10.50;;;21.00;99.90;;;;;;5040642;28;20203;-57
2023/09/11 07:06:38;;;;;;;12.73;10.90;;;21.00;99.90;;;;;;5033998;28;20226;-57
2023/09/11 07:09:06;;;;;;;12.80;10.70;;;21.10;99.90;;;;;;5035645;28;20199;-57
2023/09/11 07:11:32;;;;;;;13.17;11.37;;;21.20;99.90;;;;;;5039089;28;20222;-57
2023/09/11 07:13:58;;;;;;;12.03;10.93;;;21.30;99.90;;;;;;5035439;28;20229;-57
2023/09/11 07:16:23;;;;;;;10.17;9.17;;;21.40;99.90;;;;;;5013382;28;20205;-57
2023/09/11 07:18:49;;;;;;;11.17;10.17;;;21.40;99.90;;;;;;5030123;28;20198;-57
2023/09/11 07:21:14;;;;;;;10.20;9.40;;;21.60;99.90;;;;;;5036570;28;20198;-57
2023/09/11 07:23:40;;;;;;;12.57;10.07;;;21.70;99.90;;;;;;5034290;28;20207;-57
2023/09/11 07:26:05;;;;;;;10.33;9.33;;;21.80;99.90;;;;;;5032461;28;20619;-57
2023/09/11 07:28:33;;;;;;;9.43;8.50;;;21.90;99.90;;;;;;5036616;28;20187;-57
2023/09/11 07:30:58;;;;;;;9.27;8.57;;;22.00;99.90;;;;;;5042154;28;20620;-57
2023/09/11 07:33:24;;;;;;;10.80;9.67;;;22.00;99.90;;;;;;5037666;28;20544;-57
2023/09/11 07:35:50;;;;;;;12.30;9.40;;;22.10;99.90;;;;;;5037318;28;20204;-57
2023/09/11 07:38:16;;;;;;;8.60;7.80;;;22.20;99.90;;;;;;5018767;28;20218;-57
2023/09/11 07:40:42;;;;;;;9.60;8.73;;;22.30;99.90;;;;;;5038464;28;20289;-57
2023/09/11 07:43:08;;;;;;;11.70;7.72;;;22.40;99.90;;;;;;5038534;28;20286;-57
2023/09/11 07:45:34;;;;;;;8.30;7.30;;;22.60;99.90;;;;;;5033678;28;20305;-59
2023/09/11 07:48:00;;;;;;;9.20;8.23;;;22.70;99.90;;;;;;5036491;28;20238;-58
2023/09/11 07:50:25;;;;;;;8.82;8.00;;;22.70;99.90;;;;;;5034176;28;20223;-58
2023/09/11 07:52:51;;;;;;;8.15;7.35;;;22.80;99.90;;;;;;5040211;28;20190;-57
2023/09/11 07:55:17;;;;;;;7.93;7.22;;;23.00;99.90;;;;;;5037653;28;20714;-58
2023/09/11 07:57:43;;;;;;;7.05;6.20;;;23.10;99.90;;;;;;5032383;28;20191;-58
2023/09/11 08:00:09;;;;;;;11.73;7.65;;;23.20;99.90;;;;;;5031458;28;20214;-57
2023/09/11 08:02:34;;;;;;;9.13;7.03;;;23.30;99.90;;;;;;5030020;28;20662;-57
2023/09/11 08:05:00;;;;;;;7.55;6.80;;;23.40;99.90;;;;;;5038972;28;20226;-57
2023/09/11 08:07:26;;;;;;;7.15;6.45;;;23.50;99.90;;;;;;5059704;28;20198;-57
2023/09/11 08:09:52;;;;;;;7.80;7.20;;;23.60;99.90;;;;;;5026298;28;20346;-60
2023/09/11 08:12:18;;;;;;;8.90;7.40;;;23.70;99.90;;;;;;5056486;28;20688;-60
2023/09/11 08:14:44;;;;;;;9.20;6.78;;;23.80;99.90;;;;;;5037053;28;20202;-59
2023/09/11 08:17:10;;;;;;;8.50;6.80;;;23.90;99.90;;;;;;5055221;28;20210;-60
2023/09/11 08:19:35;;;;;;;8.98;6.30;;;23.90;99.90;;;;;;5023428;28;20271;-60
2023/09/11 08:22:03;;;;;;;8.77;6.80;;;23.90;99.90;;;;;;5047080;28;20203;-59
2023/09/11 08:24:28;;;;;;;7.18;6.47;;;23.90;99.90;;;;;;5023669;28;20208;-59
2023/09/11 08:26:54;;;;;;;7.50;6.85;;;24.00;99.90;;;;;;5040661;28;20513;-59
2023/09/11 08:29:20;;;;;;;6.93;6.32;;;24.00;99.90;;;;;;5033131;28;20789;-59
2023/09/11 08:31:46;;;;;;;9.32;7.45;;;24.00;99.90;;;;;;5036073;28;20201;-60
2023/09/11 08:34:12;;;;;;;8.15;7.35;;;24.10;99.90;;;;;;5041710;28;20664;-60
2023/09/11 08:36:37;;;;;;;7.70;7.10;;;24.20;99.90;;;;;;5034270;28;20216;-58
2023/09/11 08:39:03;;;;;;;9.90;6.70;;;24.40;99.90;;;;;;5026657;28;20193;-61
2023/09/11 08:41:30;;;;;;;8.82;6.82;;;24.50;99.90;;;;;;5024086;28;20212;-59
2023/09/11 08:43:56;;;;;;;7.30;6.53;;;24.60;99.90;;;;;;5025517;28;20196;-58
2023/09/11 08:46:22;;;;;;;7.50;6.85;;;24.70;99.90;;;;;;5033193;28;20219;-57
2023/09/11 08:48:53;;;;;;;7.38;6.68;;;24.70;99.90;;;;;;5026754;28;20237;-61
2023/09/11 08:51:24;;;;;;;7.43;6.50;;;24.70;99.90;;;;;;5040803;28;20579;-57
2023/09/11 08:53:54;;;;;;;7.65;6.75;;;24.70;99.30;;;;;;5041823;28;20653;-57
2023/09/11 08:56:20;;;;;;;8.65;7.32;;;24.80;98.20;;;;;;5016154;28;20210;-57
2023/09/11 08:58:49;;;;;;;8.05;6.53;;;24.90;98.70;;;;;;5027518;28;20204;-57
2023/09/11 09:01:16;;;;;;;7.10;6.45;;;25.00;98.00;;;;;;5031812;28;20861;-64
2023/09/11 09:03:41;;;;;;;7.13;6.53;;;25.00;96.90;;;;;;5035047;28;20279;-63
2023/09/11 09:06:07;;;;;;;7.95;6.80;;;25.20;96.60;;;;;;5038440;28;20371;-62
2023/09/11 09:08:33;;;;;;;6.63;6.00;;;25.30;96.80;;;;;;5029104;28;20277;-63
2023/09/11 09:11:00;;;;;;;6.65;6.05;;;25.40;98.70;;;;;;5036877;28;20289;-63
2023/09/11 09:13:26;;;;;;;7.20;5.57;;;25.40;95.80;;;;;;5040755;28;20208;-63
2023/09/11 09:15:51;;;;;;;6.38;5.78;;;25.50;97.50;;;;;;5037131;28;20238;-65
2023/09/11 09:18:17;;;;;;;6.40;5.82;;;25.40;97.40;;;;;;5039975;28;20492;-62
2023/09/11 09:20:42;;;;;;;6.10;5.07;;;25.50;97.50;;;;;;5038201;28;20226;-61
2023/09/11 09:23:08;;;;;;;8.18;5.57;;;25.50;97.20;;;;;;5032035;28;20206;-63
2023/09/11 09:25:33;;;;;;;6.90;6.30;;;25.60;98.40;;;;;;5036695;28;20351;-62
2023/09/11 09:28:00;;;;;;;6.85;6.20;;;25.50;97.50;;;;;;5033032;28;20198;-63
2023/09/11 09:30:30;;;;;;;8.30;6.22;;;25.70;94.30;;;;;;5028836;28;20583;-64
2023/09/11 09:32:56;;;;;;;6.70;5.88;;;25.90;93.60;;;;;;5031456;28;20231;-63
2023/09/11 09:35:28;;;;;;;8.15;6.45;;;26.20;92.90;;;;;;5036328;28;20692;-63
2023/09/11 09:37:55;;;;;;;8.13;6.07;;;26.30;92.50;;;;;;5033905;28;20330;-64
2023/09/11 09:40:36;;;;;;;7.05;5.72;;;26.20;93.00;;;;;;5032729;28;20205;-64
2023/09/11 09:43:04;;;;;;;6.47;5.85;;;26.30;93.00;;;;;;5034078;28;20209;-63
2023/09/11 09:45:33;;;;;;;7.47;5.80;;;26.30;95.20;;;;;;5033507;28;20222;-61
2023/09/11 09:48:14;;;;;;;6.88;6.28;;;26.20;94.20;;;;;;5017401;28;20238;-65
2023/09/11 09:50:52;;;;;;;8.52;6.53;;;26.40;92.40;;;;;;5035280;28;20262;-62
2023/09/11 09:53:27;;;;;;;11.65;6.57;;;26.40;92.90;;;;;;5038900;28;20201;-66
2023/09/11 09:55:59;;;;;;;14.70;6.80;;;26.50;92.40;;;;;;5016038;28;20316;-61
2023/09/11 09:58:28;;;;;;;9.93;6.47;;;26.50;93.20;;;;;;5034400;28;20233;-61
2023/09/11 10:00:58;;;;;;;8.27;6.18;;;26.70;92.10;;;;;;5037162;28;20300;-64
2023/09/11 10:03:25;;;;;;;7.00;6.30;;;26.90;92.10;;;;;;5033082;28;20205;-66
2023/09/11 10:05:50;;;;;;;7.90;6.38;;;27.00;90.70;;;;;;5034607;28;20229;-62
2023/09/11 10:08:16;;;;;;;6.57;5.80;;;27.00;92.70;;;;;;5032679;28;20206;-63
2023/09/11 10:10:41;;;;;;;6.47;5.88;;;26.90;91.30;;;;;;5018701;28;20199;-63
2023/09/11 10:13:10;;;;;;;8.50;7.50;;;26.90;92.50;;;;;;5037912;28;20668;-67
2023/09/11 10:15:37;;;;;;;8.43;5.82;;;26.90;94.30;;;;;;5039439;28;20198;-62
2023/09/11 10:18:04;;;;;;;6.35;5.85;;;26.60;93.90;;;;;;5033533;28;20245;-60
2023/09/11 10:20:31;;;;;;;7.60;6.72;;;26.50;94.70;;;;;;5031154;28;20206;-60
2023/09/11 10:22:59;;;;;;;6.43;5.82;;;26.60;93.20;;;;;;5033773;28;20203;-61
2023/09/11 10:25:27;;;;;;;7.13;6.43;;;26.70;93.20;;;;;;5033067;28;20237;-60
2023/09/11 10:27:57;;;;;;;7.68;5.75;;;26.80;93.60;;;;;;5031497;28;20259;-61
2023/09/11 10:30:31;;;;;;;6.38;5.70;;;26.90;93.90;;;;;;5028519;28;20203;-61
2023/09/11 10:33:00;;;;;;;6.60;5.90;;;27.20;92.10;;;;;;5033581;28;20251;-62
2023/09/11 10:35:29;;;;;;;7.65;6.03;;;27.30;91.40;;;;;;5036547;28;20202;-63
2023/09/11 10:37:57;;;;;;;7.25;6.57;;;27.30;90.80;;;;;;5032411;28;20598;-62
2023/09/11 10:40:27;;;;;;;9.35;6.43;;;27.40;91.30;;;;;;5034904;28;20215;-63
2023/09/11 10:42:52;;;;;;;7.18;6.55;;;27.20;93.80;;;;;;5034850;28;20554;-60
2023/09/11 10:45:28;;;;;;;6.57;5.97;;;27.00;93.00;;;;;;5030378;28;20226;-62
2023/09/11 10:47:54;;;;;;;12.32;6.60;;;27.40;93.20;;;;;;5013502;28;20791;-62
2023/09/11 10:50:23;;;;;;;8.32;6.05;;;27.40;91.40;;;;;;5031706;28;20330;-63
2023/09/11 10:52:52;;;;;;;6.72;6.00;;;27.40;91.90;;;;;;5038543;28;20194;-62
2023/09/11 10:55:18;;;;;;;7.07;6.47;;;27.90;90.90;;;;;;5015480;28;20198;-63
2023/09/11 10:57:43;;;;;;;7.65;6.22;;;27.70;91.30;;;;;;5039510;28;20259;-65
2023/09/11 11:00:10;;;;;;;11.20;7.13;;;27.60;91.60;;;;;;5031461;28;20213;-65
2023/09/11 11:02:35;;;;;;;7.80;5.85;;;27.50;91.20;;;;;;5032115;28;20696;-64
2023/09/11 11:05:01;;;;;;;7.75;6.50;;;27.50;90.80;;;;;;5035320;28;20219;-63
2023/09/11 11:07:28;;;;;;;7.05;5.78;;;27.80;91.50;;;;;;5044559;28;20281;-60
2023/09/11 11:09:53;;;;;;;7.35;6.63;;;27.60;90.20;;;;;;5039686;28;20306;-61
2023/09/11 11:12:33;;;;;;;12.10;6.25;;;27.70;92.60;;;;;;5038581;28;20301;-60
2023/09/11 11:15:34;;;;;;;7.65;5.45;;;27.70;88.80;;;;;;5041319;28;20230;-62
2023/09/11 11:18:06;;;;;;;7.68;6.97;;;28.40;87.80;;;;;;4955024;28;20897;-64
2023/09/11 11:20:33;;;;;;;9.20;6.15;;;28.70;87.00;;;;;;5013008;28;20285;-63
2023/09/11 11:23:09;;;;;;;9.32;6.57;;;28.90;86.10;;;;;;5045057;28;20296;-65
2023/09/11 11:25:36;;;;;;;12.02;5.55;;;29.20;86.50;;;;;;5039878;28;21207;-65
2023/09/11 11:28:07;;;;;;;7.80;5.65;;;29.60;80.20;;;;;;5038704;28;20205;-64
2023/09/11 11:30:35;;;;;;;10.23;6.70;;;29.30;81.80;;;;;;5035712;28;20243;-65
2023/09/11 11:33:03;;;;;;;12.02;5.60;;;29.40;85.00;;;;;;5039146;28;20328;-65
2023/09/11 11:35:29;;;;;;;8.43;5.57;;;29.30;85.00;;;;;;5037815;28;20206;-66
2023/09/11 11:37:56;;;;;;;6.07;5.45;;;29.20;81.70;;;;;;5038617;28;20629;-64
2023/09/11 11:40:21;;;;;;;6.32;5.43;;;29.40;78.40;;;;;;5039651;28;20650;-64
2023/09/11 11:42:47;;;;;;;8.52;5.88;;;29.30;85.60;;;;;;5022040;28;20195;-65
2023/09/11 11:45:13;;;;;;;8.13;6.65;;;29.80;78.00;;;;;;5048690;28;20218;-65
2023/09/11 11:47:40;;;;;;;6.57;5.57;;;30.40;79.00;;;;;;5040286;28;20222;-64
2023/09/11 11:50:12;;;;;;;6.63;5.30;;;30.40;77.00;;;;;;5042276;28;20207;-65
2023/09/11 11:52:38;;;;;;;11.70;5.45;;;31.00;74.50;;;;;;5040231;28;20269;-64
2023/09/11 11:55:20;;;;;;;8.15;5.90;;;31.10;76.10;;;;;;5038700;28;20297;-64
2023/09/11 11:57:50;;;;;;;10.98;6.57;;;31.40;71.30;;;;;;5034244;28;20268;-66
2023/09/11 12:00:16;;;;;;;8.77;5.95;;;31.70;68.60;;;;;;5033507;28;20195;-62
2023/09/11 12:02:41;;;;;;;9.02;5.22;;;31.40;70.50;;;;;;5038733;28;20257;-62
2023/09/11 12:05:16;;;;;;;6.20;5.00;;;31.80;66.10;;;;;;5037847;28;20219;-62
2023/09/11 12:07:41;;;;;;;10.57;5.90;;;32.10;62.00;;;;;;5039615;28;20563;-62
2023/09/11 12:10:10;;;;;;;9.02;5.45;;;32.40;61.20;;;;;;5042173;28;20198;-63
2023/09/11 12:12:39;;;;;;;9.23;5.18;;;31.90;66.90;;;;;;5037570;28;20198;-62
2023/09/11 12:15:05;;;;;;;6.07;5.53;;;32.20;60.70;;;;;;5037336;28;20850;-66
2023/09/11 12:17:34;;;;;;;8.95;4.70;;;32.30;63.70;;;;;;5034246;28;20191;-64
2023/09/11 12:20:10;;;;;;;8.20;5.35;;;32.40;59.60;;;;;;5039038;28;20265;-66
2023/09/11 12:22:35;;;;;;;7.53;4.55;;;32.20;63.80;;;;;;5021513;28;20205;-66
2023/09/11 12:25:01;;;;;;;8.73;4.43;;;32.60;56.50;;;;;;5031680;28;20227;-63
2023/09/11 12:27:27;;;;;;;7.75;4.70;;;32.70;58.40;;;;;;5040266;28;20282;-64
2023/09/11 12:29:57;;;;;;;6.20;4.20;;;32.70;57.70;;;;;;5035731;28;20283;-64
2023/09/11 12:32:22;;;;;;;10.02;5.55;;;32.50;55.20;;;;;;5042026;28;20427;-65
2023/09/11 12:34:48;;;;;;;8.18;4.57;;;32.00;56.90;;;;;;5038674;28;20327;-65